sensor_id;sensor_type;location;lat;lon;timestamp;P1;durP1;ratioP1;P2;durP2;ratioP2
71814;SDS011;59659;41.520;23.794;2023-08-12T00:00:18;5.50;;;2.20;;
71814;SDS011;59659;41.520;23.794;2023-08-12T00:01:30;3.77;;;2.60;;
71814;SDS011;59659;41.520;23.794;2023-08-12T00:02:42;3.80;;;2.33;;
71814;SDS011;59659;41.520;23.794;2023-08-12T00:03:54;3.17;;;2.10;;
71814;SDS011;59659;41.520;23.794;2023-08-12T00:05:06;3.63;;;2.57;;
71814;SDS011;59659;41.520;23.794;2023-08-12T00:06:18;3.37;;;2.03;;
71814;SDS011;59659;41.520;23.794;2023-08-12T00:07:29;3.10;;;2.33;;
71814;SDS011;59659;41.520;23.794;2023-08-12T00:08:41;3.93;;;2.20;;
71814;SDS011;59659;41.520;23.794;2023-08-12T00:09:52;5.17;;;2.40;;
71814;SDS011;59659;41.520;23.794;2023-08-12T00:11:04;4.17;;;2.50;;
71814;SDS011;59659;41.520;23.794;2023-08-12T00:12:15;5.50;;;2.57;;
71814;SDS011;59659;41.520;23.794;2023-08-12T00:13:27;4.97;;;2.80;;
71814;SDS011;59659;41.520;23.794;2023-08-12T00:14:38;3.43;;;2.67;;
71814;SDS011;59659;41.520;23.794;2023-08-12T00:15:51;3.07;;;2.30;;
71814;SDS011;59659;41.520;23.794;2023-08-12T00:17:03;3.10;;;2.10;;
71814;SDS011;59659;41.520;23.794;2023-08-12T00:18:15;3.40;;;2.33;;
71814;SDS011;59659;41.520;23.794;2023-08-12T00:19:26;4.00;;;2.63;;
71814;SDS011;59659;41.520;23.794;2023-08-12T00:20:38;4.30;;;2.93;;
71814;SDS011;59659;41.520;23.794;2023-08-12T00:21:50;4.17;;;2.70;;
71814;SDS011;59659;41.520;23.794;2023-08-12T00:23:04;5.37;;;2.73;;
71814;SDS011;59659;41.520;23.794;2023-08-12T00:24:15;3.20;;;2.37;;
71814;SDS011;59659;41.520;23.794;2023-08-12T00:25:28;3.90;;;2.27;;
71814;SDS011;59659;41.520;23.794;2023-08-12T00:26:39;3.67;;;2.63;;
71814;SDS011;59659;41.520;23.794;2023-08-12T00:27:52;5.20;;;2.90;;
71814;SDS011;59659;41.520;23.794;2023-08-12T00:29:03;6.17;;;2.97;;
71814;SDS011;59659;41.520;23.794;2023-08-12T00:30:15;3.83;;;2.53;;
71814;SDS011;59659;41.520;23.794;2023-08-12T00:31:27;7.40;;;2.77;;
71814;SDS011;59659;41.520;23.794;2023-08-12T00:32:39;3.07;;;2.60;;
71814;SDS011;59659;41.520;23.794;2023-08-12T00:33:52;3.70;;;2.63;;
71814;SDS011;59659;41.520;23.794;2023-08-12T00:35:03;4.57;;;2.70;;
71814;SDS011;59659;41.520;23.794;2023-08-12T00:36:15;3.47;;;2.30;;
71814;SDS011;59659;41.520;23.794;2023-08-12T00:37:27;3.43;;;2.23;;
71814;SDS011;59659;41.520;23.794;2023-08-12T00:38:38;3.23;;;2.43;;
71814;SDS011;59659;41.520;23.794;2023-08-12T00:39:50;4.63;;;2.70;;
71814;SDS011;59659;41.520;23.794;2023-08-12T00:41:03;3.27;;;2.20;;
71814;SDS011;59659;41.520;23.794;2023-08-12T00:42:14;3.67;;;2.07;;
71814;SDS011;59659;41.520;23.794;2023-08-12T00:43:26;4.13;;;2.47;;
71814;SDS011;59659;41.520;23.794;2023-08-12T00:44:37;3.60;;;2.57;;
71814;SDS011;59659;41.520;23.794;2023-08-12T00:45:49;4.73;;;2.40;;
71814;SDS011;59659;41.520;23.794;2023-08-12T00:47:00;3.13;;;2.27;;
71814;SDS011;59659;41.520;23.794;2023-08-12T00:48:12;5.10;;;2.63;;
71814;SDS011;59659;41.520;23.794;2023-08-12T00:49:25;4.23;;;2.50;;
71814;SDS011;59659;41.520;23.794;2023-08-12T00:50:37;3.77;;;2.23;;
71814;SDS011;59659;41.520;23.794;2023-08-12T00:51:50;4.37;;;3.00;;
71814;SDS011;59659;41.520;23.794;2023-08-12T00:53:04;4.23;;;2.60;;
71814;SDS011;59659;41.520;23.794;2023-08-12T00:54:17;4.53;;;2.97;;
71814;SDS011;59659;41.520;23.794;2023-08-12T00:55:29;2.80;;;2.30;;
71814;SDS011;59659;41.520;23.794;2023-08-12T00:56:40;4.17;;;2.10;;
71814;SDS011;59659;41.520;23.794;2023-08-12T00:57:52;4.43;;;2.63;;
71814;SDS011;59659;41.520;23.794;2023-08-12T00:59:04;4.23;;;2.77;;
71814;SDS011;59659;41.520;23.794;2023-08-12T01:00:16;3.13;;;2.20;;
71814;SDS011;59659;41.520;23.794;2023-08-12T01:01:28;4.57;;;2.70;;
71814;SDS011;59659;41.520;23.794;2023-08-12T01:02:41;5.10;;;2.47;;
71814;SDS011;59659;41.520;23.794;2023-08-12T01:03:55;3.07;;;2.33;;
71814;SDS011;59659;41.520;23.794;2023-08-12T01:05:07;5.70;;;2.70;;
71814;SDS011;59659;41.520;23.794;2023-08-12T01:06:19;3.43;;;2.50;;
71814;SDS011;59659;41.520;23.794;2023-08-12T01:07:31;3.67;;;2.83;;
71814;SDS011;59659;41.520;23.794;2023-08-12T01:08:42;5.43;;;2.87;;
71814;SDS011;59659;41.520;23.794;2023-08-12T01:09:54;5.90;;;3.17;;
71814;SDS011;59659;41.520;23.794;2023-08-12T01:11:08;4.20;;;2.30;;
71814;SDS011;59659;41.520;23.794;2023-08-12T01:12:28;3.40;;;2.50;;
71814;SDS011;59659;41.520;23.794;2023-08-12T01:16:06;3.63;;;2.40;;
71814;SDS011;59659;41.520;23.794;2023-08-12T01:17:19;4.07;;;2.70;;
71814;SDS011;59659;41.520;23.794;2023-08-12T01:18:31;7.17;;;2.47;;
71814;SDS011;59659;41.520;23.794;2023-08-12T01:19:43;4.13;;;2.70;;
71814;SDS011;59659;41.520;23.794;2023-08-12T01:20:56;3.67;;;2.50;;
71814;SDS011;59659;41.520;23.794;2023-08-12T01:22:08;4.00;;;2.60;;
71814;SDS011;59659;41.520;23.794;2023-08-12T01:23:20;4.90;;;2.63;;
71814;SDS011;59659;41.520;23.794;2023-08-12T01:24:41;4.80;;;2.70;;
71814;SDS011;59659;41.520;23.794;2023-08-12T01:25:53;4.00;;;2.60;;
71814;SDS011;59659;41.520;23.794;2023-08-12T01:27:05;5.70;;;2.60;;
71814;SDS011;59659;41.520;23.794;2023-08-12T01:28:17;4.40;;;2.30;;
71814;SDS011;59659;41.520;23.794;2023-08-12T01:29:28;8.00;;;2.60;;
71814;SDS011;59659;41.520;23.794;2023-08-12T01:32:24;4.20;;;2.20;;
71814;SDS011;59659;41.520;23.794;2023-08-12T01:35:06;5.27;;;2.60;;
71814;SDS011;59659;41.520;23.794;2023-08-12T01:36:20;4.07;;;2.67;;
71814;SDS011;59659;41.520;23.794;2023-08-12T01:37:33;5.37;;;2.43;;
71814;SDS011;59659;41.520;23.794;2023-08-12T01:38:46;2.83;;;1.97;;
71814;SDS011;59659;41.520;23.794;2023-08-12T01:39:59;4.27;;;2.50;;
71814;SDS011;59659;41.520;23.794;2023-08-12T01:41:11;3.07;;;2.20;;
71814;SDS011;59659;41.520;23.794;2023-08-12T01:42:24;4.10;;;2.90;;
71814;SDS011;59659;41.520;23.794;2023-08-12T01:43:36;4.90;;;2.70;;
71814;SDS011;59659;41.520;23.794;2023-08-12T01:44:48;3.40;;;2.30;;
71814;SDS011;59659;41.520;23.794;2023-08-12T01:46:00;4.37;;;2.97;;
71814;SDS011;59659;41.520;23.794;2023-08-12T01:47:12;4.17;;;3.00;;
71814;SDS011;59659;41.520;23.794;2023-08-12T01:48:24;3.53;;;2.60;;
71814;SDS011;59659;41.520;23.794;2023-08-12T01:49:36;5.77;;;2.53;;
71814;SDS011;59659;41.520;23.794;2023-08-12T01:50:47;5.50;;;2.53;;
71814;SDS011;59659;41.520;23.794;2023-08-12T01:51:59;4.17;;;2.33;;
71814;SDS011;59659;41.520;23.794;2023-08-12T01:53:10;3.23;;;2.33;;
71814;SDS011;59659;41.520;23.794;2023-08-12T01:54:22;4.07;;;2.37;;
71814;SDS011;59659;41.520;23.794;2023-08-12T01:55:33;3.97;;;2.67;;
71814;SDS011;59659;41.520;23.794;2023-08-12T01:56:45;4.73;;;2.23;;
71814;SDS011;59659;41.520;23.794;2023-08-12T01:57:56;4.87;;;2.33;;
71814;SDS011;59659;41.520;23.794;2023-08-12T01:59:08;9.37;;;2.93;;
71814;SDS011;59659;41.520;23.794;2023-08-12T02:00:19;9.73;;;3.37;;
71814;SDS011;59659;41.520;23.794;2023-08-12T02:01:31;4.07;;;2.80;;
71814;SDS011;59659;41.520;23.794;2023-08-12T02:02:43;4.67;;;2.93;;
71814;SDS011;59659;41.520;23.794;2023-08-12T02:03:57;3.70;;;2.40;;
71814;SDS011;59659;41.520;23.794;2023-08-12T02:05:09;4.90;;;2.90;;
71814;SDS011;59659;41.520;23.794;2023-08-12T02:06:20;4.33;;;2.60;;
71814;SDS011;59659;41.520;23.794;2023-08-12T02:07:32;3.53;;;2.50;;
71814;SDS011;59659;41.520;23.794;2023-08-12T02:08:44;3.60;;;2.73;;
71814;SDS011;59659;41.520;23.794;2023-08-12T02:09:55;6.37;;;2.90;;
71814;SDS011;59659;41.520;23.794;2023-08-12T02:11:07;6.20;;;3.53;;
71814;SDS011;59659;41.520;23.794;2023-08-12T02:12:18;4.53;;;3.20;;
71814;SDS011;59659;41.520;23.794;2023-08-12T02:13:30;5.40;;;3.70;;
71814;SDS011;59659;41.520;23.794;2023-08-12T02:14:42;4.37;;;3.03;;
71814;SDS011;59659;41.520;23.794;2023-08-12T02:15:53;5.20;;;3.57;;
71814;SDS011;59659;41.520;23.794;2023-08-12T02:17:05;5.43;;;3.13;;
71814;SDS011;59659;41.520;23.794;2023-08-12T02:18:17;4.13;;;3.07;;
71814;SDS011;59659;41.520;23.794;2023-08-12T02:19:28;3.87;;;3.10;;
71814;SDS011;59659;41.520;23.794;2023-08-12T02:20:40;4.13;;;2.80;;
71814;SDS011;59659;41.520;23.794;2023-08-12T02:21:52;6.97;;;3.43;;
71814;SDS011;59659;41.520;23.794;2023-08-12T02:23:03;5.40;;;3.60;;
71814;SDS011;59659;41.520;23.794;2023-08-12T02:24:15;4.60;;;3.33;;
71814;SDS011;59659;41.520;23.794;2023-08-12T02:25:26;5.00;;;3.60;;
71814;SDS011;59659;41.520;23.794;2023-08-12T02:26:38;8.70;;;3.40;;
71814;SDS011;59659;41.520;23.794;2023-08-12T02:27:49;6.33;;;3.47;;
71814;SDS011;59659;41.520;23.794;2023-08-12T02:29:01;4.13;;;3.10;;
71814;SDS011;59659;41.520;23.794;2023-08-12T02:30:12;4.10;;;3.20;;
71814;SDS011;59659;41.520;23.794;2023-08-12T02:31:24;4.53;;;2.77;;
71814;SDS011;59659;41.520;23.794;2023-08-12T02:32:36;5.37;;;3.33;;
71814;SDS011;59659;41.520;23.794;2023-08-12T02:33:48;6.90;;;2.93;;
71814;SDS011;59659;41.520;23.794;2023-08-12T02:35:00;6.20;;;3.67;;
71814;SDS011;59659;41.520;23.794;2023-08-12T02:36:12;5.00;;;2.60;;
71814;SDS011;59659;41.520;23.794;2023-08-12T02:37:23;4.27;;;3.20;;
71814;SDS011;59659;41.520;23.794;2023-08-12T02:38:35;4.30;;;2.77;;
71814;SDS011;59659;41.520;23.794;2023-08-12T02:39:46;4.07;;;2.93;;
71814;SDS011;59659;41.520;23.794;2023-08-12T02:40:58;3.77;;;2.73;;
71814;SDS011;59659;41.520;23.794;2023-08-12T02:42:10;4.50;;;3.50;;
71814;SDS011;59659;41.520;23.794;2023-08-12T02:43:21;6.70;;;3.70;;
71814;SDS011;59659;41.520;23.794;2023-08-12T02:44:33;6.00;;;2.70;;
71814;SDS011;59659;41.520;23.794;2023-08-12T02:45:44;6.43;;;2.97;;
71814;SDS011;59659;41.520;23.794;2023-08-12T02:46:56;5.13;;;3.00;;
71814;SDS011;59659;41.520;23.794;2023-08-12T02:48:09;4.40;;;2.77;;
71814;SDS011;59659;41.520;23.794;2023-08-12T02:49:20;6.57;;;3.30;;
71814;SDS011;59659;41.520;23.794;2023-08-12T02:50:32;5.03;;;3.00;;
71814;SDS011;59659;41.520;23.794;2023-08-12T02:51:43;4.83;;;2.93;;
71814;SDS011;59659;41.520;23.794;2023-08-12T02:52:55;7.30;;;3.57;;
71814;SDS011;59659;41.520;23.794;2023-08-12T02:54:07;7.67;;;3.63;;
71814;SDS011;59659;41.520;23.794;2023-08-12T02:55:18;5.93;;;3.67;;
71814;SDS011;59659;41.520;23.794;2023-08-12T02:56:30;5.60;;;3.60;;
71814;SDS011;59659;41.520;23.794;2023-08-12T02:57:41;7.90;;;3.60;;
71814;SDS011;59659;41.520;23.794;2023-08-12T02:58:53;6.27;;;3.80;;
71814;SDS011;59659;41.520;23.794;2023-08-12T03:00:05;6.53;;;3.57;;
71814;SDS011;59659;41.520;23.794;2023-08-12T03:01:16;6.43;;;3.93;;
71814;SDS011;59659;41.520;23.794;2023-08-12T03:02:28;5.20;;;3.77;;
71814;SDS011;59659;41.520;23.794;2023-08-12T03:03:40;6.33;;;3.70;;
71814;SDS011;59659;41.520;23.794;2023-08-12T03:04:51;9.23;;;4.00;;
71814;SDS011;59659;41.520;23.794;2023-08-12T03:06:05;5.07;;;3.20;;
71814;SDS011;59659;41.520;23.794;2023-08-12T03:07:17;7.10;;;4.13;;
71814;SDS011;59659;41.520;23.794;2023-08-12T03:08:28;7.47;;;3.80;;
71814;SDS011;59659;41.520;23.794;2023-08-12T03:09:40;7.00;;;4.00;;
71814;SDS011;59659;41.520;23.794;2023-08-12T03:10:57;8.70;;;4.43;;
71814;SDS011;59659;41.520;23.794;2023-08-12T03:12:09;7.90;;;4.43;;
71814;SDS011;59659;41.520;23.794;2023-08-12T03:13:20;6.97;;;4.20;;
71814;SDS011;59659;41.520;23.794;2023-08-12T03:14:32;6.10;;;3.90;;
71814;SDS011;59659;41.520;23.794;2023-08-12T03:15:44;8.90;;;3.97;;
71814;SDS011;59659;41.520;23.794;2023-08-12T03:16:55;6.07;;;4.00;;
71814;SDS011;59659;41.520;23.794;2023-08-12T03:18:07;8.00;;;4.13;;
71814;SDS011;59659;41.520;23.794;2023-08-12T03:19:18;7.80;;;4.27;;
71814;SDS011;59659;41.520;23.794;2023-08-12T03:20:30;5.83;;;4.00;;
71814;SDS011;59659;41.520;23.794;2023-08-12T03:21:41;6.97;;;3.33;;
71814;SDS011;59659;41.520;23.794;2023-08-12T03:22:53;6.10;;;3.53;;
71814;SDS011;59659;41.520;23.794;2023-08-12T03:24:05;8.13;;;4.47;;
71814;SDS011;59659;41.520;23.794;2023-08-12T03:25:16;5.23;;;3.53;;
71814;SDS011;59659;41.520;23.794;2023-08-12T03:26:28;5.93;;;3.73;;
71814;SDS011;59659;41.520;23.794;2023-08-12T03:27:39;6.67;;;4.20;;
71814;SDS011;59659;41.520;23.794;2023-08-12T03:28:51;6.90;;;4.33;;
71814;SDS011;59659;41.520;23.794;2023-08-12T03:30:02;7.87;;;4.63;;
71814;SDS011;59659;41.520;23.794;2023-08-12T03:31:14;8.87;;;4.27;;
71814;SDS011;59659;41.520;23.794;2023-08-12T03:32:26;5.23;;;3.80;;
71814;SDS011;59659;41.520;23.794;2023-08-12T03:33:38;7.07;;;4.00;;
71814;SDS011;59659;41.520;23.794;2023-08-12T03:34:49;8.30;;;4.20;;
71814;SDS011;59659;41.520;23.794;2023-08-12T03:36:01;8.60;;;4.73;;
71814;SDS011;59659;41.520;23.794;2023-08-12T03:37:12;7.00;;;4.93;;
71814;SDS011;59659;41.520;23.794;2023-08-12T03:38:24;7.03;;;4.17;;
71814;SDS011;59659;41.520;23.794;2023-08-12T03:39:35;5.67;;;4.00;;
71814;SDS011;59659;41.520;23.794;2023-08-12T03:40:47;9.23;;;4.83;;
71814;SDS011;59659;41.520;23.794;2023-08-12T03:41:58;6.03;;;4.20;;
71814;SDS011;59659;41.520;23.794;2023-08-12T03:43:10;5.90;;;3.87;;
71814;SDS011;59659;41.520;23.794;2023-08-12T03:44:22;6.27;;;3.80;;
71814;SDS011;59659;41.520;23.794;2023-08-12T03:45:39;8.60;;;3.63;;
71814;SDS011;59659;41.520;23.794;2023-08-12T03:46:50;6.43;;;3.97;;
71814;SDS011;59659;41.520;23.794;2023-08-12T03:48:02;7.27;;;4.17;;
71814;SDS011;59659;41.520;23.794;2023-08-12T03:49:14;6.40;;;3.83;;
71814;SDS011;59659;41.520;23.794;2023-08-12T03:50:25;4.87;;;3.33;;
71814;SDS011;59659;41.520;23.794;2023-08-12T03:51:37;7.67;;;3.40;;
71814;SDS011;59659;41.520;23.794;2023-08-12T03:52:48;8.10;;;3.77;;
71814;SDS011;59659;41.520;23.794;2023-08-12T03:54:00;6.13;;;3.83;;
71814;SDS011;59659;41.520;23.794;2023-08-12T03:55:11;7.47;;;3.93;;
71814;SDS011;59659;41.520;23.794;2023-08-12T03:56:23;6.13;;;3.43;;
71814;SDS011;59659;41.520;23.794;2023-08-12T03:57:35;4.80;;;3.60;;
71814;SDS011;59659;41.520;23.794;2023-08-12T03:58:46;4.83;;;2.93;;
71814;SDS011;59659;41.520;23.794;2023-08-12T03:59:58;7.37;;;3.50;;
71814;SDS011;59659;41.520;23.794;2023-08-12T04:01:09;6.63;;;3.87;;
71814;SDS011;59659;41.520;23.794;2023-08-12T04:02:21;5.93;;;3.70;;
71814;SDS011;59659;41.520;23.794;2023-08-12T04:03:33;5.13;;;3.20;;
71814;SDS011;59659;41.520;23.794;2023-08-12T04:04:44;5.60;;;3.80;;
71814;SDS011;59659;41.520;23.794;2023-08-12T04:05:56;6.23;;;3.63;;
71814;SDS011;59659;41.520;23.794;2023-08-12T04:07:08;11.07;;;3.70;;
71814;SDS011;59659;41.520;23.794;2023-08-12T04:08:21;5.70;;;3.17;;
71814;SDS011;59659;41.520;23.794;2023-08-12T04:09:33;4.40;;;3.27;;
71814;SDS011;59659;41.520;23.794;2023-08-12T04:10:47;6.83;;;3.60;;
71814;SDS011;59659;41.520;23.794;2023-08-12T04:11:59;6.80;;;3.67;;
71814;SDS011;59659;41.520;23.794;2023-08-12T04:13:11;5.90;;;3.70;;
71814;SDS011;59659;41.520;23.794;2023-08-12T04:14:22;5.10;;;3.17;;
71814;SDS011;59659;41.520;23.794;2023-08-12T04:15:34;7.53;;;4.03;;
71814;SDS011;59659;41.520;23.794;2023-08-12T04:16:45;7.13;;;3.70;;
71814;SDS011;59659;41.520;23.794;2023-08-12T04:17:57;6.73;;;3.33;;
71814;SDS011;59659;41.520;23.794;2023-08-12T04:19:10;9.40;;;3.20;;
71814;SDS011;59659;41.520;23.794;2023-08-12T04:20:21;4.70;;;3.63;;
71814;SDS011;59659;41.520;23.794;2023-08-12T04:21:33;5.03;;;3.60;;
71814;SDS011;59659;41.520;23.794;2023-08-12T04:22:45;6.70;;;3.67;;
71814;SDS011;59659;41.520;23.794;2023-08-12T04:24:00;5.70;;;3.87;;
71814;SDS011;59659;41.520;23.794;2023-08-12T04:25:11;7.17;;;3.60;;
71814;SDS011;59659;41.520;23.794;2023-08-12T04:26:23;6.83;;;4.10;;
71814;SDS011;59659;41.520;23.794;2023-08-12T04:27:34;5.03;;;3.53;;
71814;SDS011;59659;41.520;23.794;2023-08-12T04:28:46;4.63;;;3.50;;
71814;SDS011;59659;41.520;23.794;2023-08-12T04:29:57;4.37;;;3.20;;
71814;SDS011;59659;41.520;23.794;2023-08-12T04:31:09;4.37;;;3.10;;
71814;SDS011;59659;41.520;23.794;2023-08-12T04:32:20;6.00;;;4.10;;
71814;SDS011;59659;41.520;23.794;2023-08-12T04:33:32;5.23;;;3.00;;
71814;SDS011;59659;41.520;23.794;2023-08-12T04:34:44;5.43;;;2.93;;
71814;SDS011;59659;41.520;23.794;2023-08-12T04:35:55;5.53;;;3.03;;
71814;SDS011;59659;41.520;23.794;2023-08-12T04:37:08;6.27;;;3.53;;
71814;SDS011;59659;41.520;23.794;2023-08-12T04:38:20;5.50;;;3.57;;
71814;SDS011;59659;41.520;23.794;2023-08-12T04:39:31;6.77;;;2.93;;
71814;SDS011;59659;41.520;23.794;2023-08-12T04:40:43;3.83;;;3.20;;
71814;SDS011;59659;41.520;23.794;2023-08-12T04:41:55;7.27;;;3.40;;
71814;SDS011;59659;41.520;23.794;2023-08-12T04:43:10;5.97;;;3.20;;
71814;SDS011;59659;41.520;23.794;2023-08-12T04:44:22;4.77;;;3.73;;
71814;SDS011;59659;41.520;23.794;2023-08-12T04:45:33;7.87;;;2.93;;
71814;SDS011;59659;41.520;23.794;2023-08-12T04:46:46;9.97;;;3.80;;
71814;SDS011;59659;41.520;23.794;2023-08-12T04:47:58;4.53;;;2.83;;
71814;SDS011;59659;41.520;23.794;2023-08-12T04:49:11;5.70;;;3.07;;
71814;SDS011;59659;41.520;23.794;2023-08-12T04:50:22;11.07;;;2.80;;
71814;SDS011;59659;41.520;23.794;2023-08-12T04:51:34;8.80;;;3.60;;
71814;SDS011;59659;41.520;23.794;2023-08-12T04:52:45;4.10;;;3.40;;
71814;SDS011;59659;41.520;23.794;2023-08-12T04:53:57;6.93;;;3.40;;
71814;SDS011;59659;41.520;23.794;2023-08-12T04:55:09;4.47;;;3.10;;
71814;SDS011;59659;41.520;23.794;2023-08-12T04:56:21;8.37;;;2.97;;
71814;SDS011;59659;41.520;23.794;2023-08-12T04:57:34;5.37;;;3.60;;
71814;SDS011;59659;41.520;23.794;2023-08-12T04:58:46;4.57;;;3.30;;
71814;SDS011;59659;41.520;23.794;2023-08-12T04:59:57;6.90;;;3.50;;
71814;SDS011;59659;41.520;23.794;2023-08-12T05:01:09;6.43;;;4.03;;
71814;SDS011;59659;41.520;23.794;2023-08-12T05:02:20;4.80;;;3.07;;
71814;SDS011;59659;41.520;23.794;2023-08-12T05:03:33;9.17;;;3.90;;
71814;SDS011;59659;41.520;23.794;2023-08-12T05:04:48;5.63;;;3.53;;
71814;SDS011;59659;41.520;23.794;2023-08-12T05:06:00;6.33;;;4.43;;
71814;SDS011;59659;41.520;23.794;2023-08-12T05:07:12;6.10;;;3.70;;
71814;SDS011;59659;41.520;23.794;2023-08-12T05:08:23;5.03;;;3.23;;
71814;SDS011;59659;41.520;23.794;2023-08-12T05:09:35;5.67;;;3.80;;
71814;SDS011;59659;41.520;23.794;2023-08-12T05:10:47;4.77;;;3.47;;
71814;SDS011;59659;41.520;23.794;2023-08-12T05:11:59;5.90;;;3.33;;
71814;SDS011;59659;41.520;23.794;2023-08-12T05:13:11;5.17;;;3.40;;
71814;SDS011;59659;41.520;23.794;2023-08-12T05:14:22;4.67;;;2.97;;
71814;SDS011;59659;41.520;23.794;2023-08-12T05:15:34;5.57;;;3.70;;
71814;SDS011;59659;41.520;23.794;2023-08-12T05:16:48;6.07;;;3.30;;
71814;SDS011;59659;41.520;23.794;2023-08-12T05:17:59;4.97;;;3.23;;
71814;SDS011;59659;41.520;23.794;2023-08-12T05:19:11;4.27;;;2.70;;
71814;SDS011;59659;41.520;23.794;2023-08-12T05:20:22;4.30;;;2.83;;
71814;SDS011;59659;41.520;23.794;2023-08-12T05:21:34;4.07;;;2.83;;
71814;SDS011;59659;41.520;23.794;2023-08-12T05:22:45;6.07;;;3.10;;
71814;SDS011;59659;41.520;23.794;2023-08-12T05:23:57;4.63;;;3.27;;
71814;SDS011;59659;41.520;23.794;2023-08-12T05:25:08;4.70;;;4.20;;
71814;SDS011;59659;41.520;23.794;2023-08-12T05:26:20;4.47;;;3.60;;
71814;SDS011;59659;41.520;23.794;2023-08-12T05:27:32;4.30;;;3.23;;
71814;SDS011;59659;41.520;23.794;2023-08-12T05:28:43;5.67;;;3.13;;
71814;SDS011;59659;41.520;23.794;2023-08-12T05:29:55;3.90;;;2.83;;
71814;SDS011;59659;41.520;23.794;2023-08-12T05:31:07;4.93;;;3.10;;
71814;SDS011;59659;41.520;23.794;2023-08-12T05:32:18;4.93;;;3.30;;
71814;SDS011;59659;41.520;23.794;2023-08-12T05:33:30;4.77;;;2.57;;
71814;SDS011;59659;41.520;23.794;2023-08-12T05:34:42;3.93;;;2.60;;
71814;SDS011;59659;41.520;23.794;2023-08-12T05:35:53;5.17;;;3.50;;
71814;SDS011;59659;41.520;23.794;2023-08-12T05:37:05;6.27;;;3.30;;
71814;SDS011;59659;41.520;23.794;2023-08-12T05:38:16;3.80;;;2.87;;
71814;SDS011;59659;41.520;23.794;2023-08-12T05:39:28;4.40;;;2.93;;
71814;SDS011;59659;41.520;23.794;2023-08-12T05:40:40;3.77;;;3.07;;
71814;SDS011;59659;41.520;23.794;2023-08-12T05:41:52;5.63;;;2.90;;
71814;SDS011;59659;41.520;23.794;2023-08-12T05:43:03;3.97;;;2.90;;
71814;SDS011;59659;41.520;23.794;2023-08-12T05:44:15;5.00;;;2.87;;
71814;SDS011;59659;41.520;23.794;2023-08-12T05:45:26;6.70;;;3.10;;
71814;SDS011;59659;41.520;23.794;2023-08-12T05:46:38;5.33;;;3.30;;
71814;SDS011;59659;41.520;23.794;2023-08-12T05:47:49;5.13;;;3.10;;
71814;SDS011;59659;41.520;23.794;2023-08-12T05:49:01;9.17;;;3.47;;
71814;SDS011;59659;41.520;23.794;2023-08-12T05:50:13;5.60;;;3.60;;
71814;SDS011;59659;41.520;23.794;2023-08-12T05:51:24;6.47;;;2.90;;
71814;SDS011;59659;41.520;23.794;2023-08-12T05:52:40;4.00;;;2.93;;
71814;SDS011;59659;41.520;23.794;2023-08-12T05:53:52;4.97;;;3.07;;
71814;SDS011;59659;41.520;23.794;2023-08-12T05:55:04;5.57;;;3.17;;
71814;SDS011;59659;41.520;23.794;2023-08-12T05:56:15;5.33;;;3.50;;
71814;SDS011;59659;41.520;23.794;2023-08-12T05:57:27;4.33;;;2.77;;
71814;SDS011;59659;41.520;23.794;2023-08-12T05:58:40;4.77;;;3.53;;
71814;SDS011;59659;41.520;23.794;2023-08-12T05:59:51;4.60;;;3.43;;
71814;SDS011;59659;41.520;23.794;2023-08-12T06:01:03;4.07;;;3.23;;
71814;SDS011;59659;41.520;23.794;2023-08-12T06:02:15;3.83;;;3.13;;
71814;SDS011;59659;41.520;23.794;2023-08-12T06:03:26;5.27;;;3.47;;
71814;SDS011;59659;41.520;23.794;2023-08-12T06:04:38;8.50;;;2.83;;
71814;SDS011;59659;41.520;23.794;2023-08-12T06:05:49;4.90;;;3.20;;
71814;SDS011;59659;41.520;23.794;2023-08-12T06:07:01;3.73;;;2.70;;
71814;SDS011;59659;41.520;23.794;2023-08-12T06:08:13;3.73;;;2.70;;
71814;SDS011;59659;41.520;23.794;2023-08-12T06:09:24;4.67;;;2.97;;
71814;SDS011;59659;41.520;23.794;2023-08-12T06:10:36;4.03;;;3.20;;
71814;SDS011;59659;41.520;23.794;2023-08-12T06:11:50;5.20;;;2.90;;
71814;SDS011;59659;41.520;23.794;2023-08-12T06:13:02;3.33;;;3.03;;
71814;SDS011;59659;41.520;23.794;2023-08-12T06:14:14;4.67;;;3.30;;
71814;SDS011;59659;41.520;23.794;2023-08-12T06:15:25;4.40;;;3.10;;
71814;SDS011;59659;41.520;23.794;2023-08-12T06:16:37;4.17;;;3.30;;
71814;SDS011;59659;41.520;23.794;2023-08-12T06:17:48;3.63;;;2.63;;
71814;SDS011;59659;41.520;23.794;2023-08-12T06:19:00;4.67;;;3.07;;
71814;SDS011;59659;41.520;23.794;2023-08-12T06:20:11;4.10;;;3.13;;
71814;SDS011;59659;41.520;23.794;2023-08-12T06:21:23;5.30;;;3.30;;
71814;SDS011;59659;41.520;23.794;2023-08-12T06:22:34;4.00;;;2.80;;
71814;SDS011;59659;41.520;23.794;2023-08-12T06:23:46;5.50;;;2.80;;
71814;SDS011;59659;41.520;23.794;2023-08-12T06:24:57;8.63;;;3.67;;
71814;SDS011;59659;41.520;23.794;2023-08-12T06:26:09;6.40;;;2.97;;
71814;SDS011;59659;41.520;23.794;2023-08-12T06:27:20;4.60;;;3.27;;
71814;SDS011;59659;41.520;23.794;2023-08-12T06:28:32;4.07;;;2.73;;
71814;SDS011;59659;41.520;23.794;2023-08-12T06:29:44;4.57;;;2.97;;
71814;SDS011;59659;41.520;23.794;2023-08-12T06:30:55;5.73;;;2.87;;
71814;SDS011;59659;41.520;23.794;2023-08-12T06:32:07;6.53;;;3.60;;
71814;SDS011;59659;41.520;23.794;2023-08-12T06:33:18;5.60;;;2.80;;
71814;SDS011;59659;41.520;23.794;2023-08-12T06:34:30;5.93;;;3.07;;
71814;SDS011;59659;41.520;23.794;2023-08-12T06:35:41;3.40;;;2.93;;
71814;SDS011;59659;41.520;23.794;2023-08-12T06:36:53;5.40;;;3.47;;
71814;SDS011;59659;41.520;23.794;2023-08-12T06:38:05;5.10;;;3.03;;
71814;SDS011;59659;41.520;23.794;2023-08-12T06:39:16;4.07;;;3.20;;
71814;SDS011;59659;41.520;23.794;2023-08-12T06:40:28;4.27;;;2.90;;
71814;SDS011;59659;41.520;23.794;2023-08-12T06:41:42;8.57;;;3.63;;
71814;SDS011;59659;41.520;23.794;2023-08-12T06:42:53;4.63;;;3.73;;
71814;SDS011;59659;41.520;23.794;2023-08-12T06:44:05;5.53;;;3.30;;
71814;SDS011;59659;41.520;23.794;2023-08-12T06:45:16;6.23;;;3.40;;
71814;SDS011;59659;41.520;23.794;2023-08-12T06:46:28;4.63;;;3.10;;
71814;SDS011;59659;41.520;23.794;2023-08-12T06:47:39;6.57;;;3.50;;
71814;SDS011;59659;41.520;23.794;2023-08-12T06:48:51;3.93;;;3.53;;
71814;SDS011;59659;41.520;23.794;2023-08-12T06:50:02;5.70;;;3.40;;
71814;SDS011;59659;41.520;23.794;2023-08-12T06:51:14;5.80;;;3.30;;
71814;SDS011;59659;41.520;23.794;2023-08-12T06:52:26;4.33;;;3.17;;
71814;SDS011;59659;41.520;23.794;2023-08-12T06:53:38;4.60;;;3.37;;
71814;SDS011;59659;41.520;23.794;2023-08-12T06:54:49;4.77;;;3.50;;
71814;SDS011;59659;41.520;23.794;2023-08-12T06:56:01;5.47;;;3.53;;
71814;SDS011;59659;41.520;23.794;2023-08-12T06:57:12;4.63;;;2.80;;
71814;SDS011;59659;41.520;23.794;2023-08-12T06:58:24;3.00;;;2.53;;
71814;SDS011;59659;41.520;23.794;2023-08-12T06:59:36;4.50;;;3.03;;
71814;SDS011;59659;41.520;23.794;2023-08-12T07:00:47;6.07;;;2.80;;
71814;SDS011;59659;41.520;23.794;2023-08-12T07:01:59;4.60;;;2.87;;
71814;SDS011;59659;41.520;23.794;2023-08-12T07:03:10;3.73;;;2.80;;
71814;SDS011;59659;41.520;23.794;2023-08-12T07:04:22;4.27;;;2.77;;
71814;SDS011;59659;41.520;23.794;2023-08-12T07:05:34;3.80;;;2.67;;
71814;SDS011;59659;41.520;23.794;2023-08-12T07:06:45;4.37;;;3.13;;
71814;SDS011;59659;41.520;23.794;2023-08-12T07:07:56;4.27;;;2.57;;
71814;SDS011;59659;41.520;23.794;2023-08-12T07:09:08;3.10;;;2.23;;
71814;SDS011;59659;41.520;23.794;2023-08-12T07:10:20;4.73;;;2.57;;
71814;SDS011;59659;41.520;23.794;2023-08-12T07:11:34;5.80;;;2.30;;